createdAt,value
2022-08-05T04:17:12.134Z,4.32
2022-08-05T04:19:46.963Z,4.25
2022-08-05T04:22:21.394Z,3.40
2022-08-05T04:24:52.545Z,4.05
2022-08-05T04:27:32.972Z,3.25
2022-08-05T04:30:08.674Z,6.25
2022-08-05T04:32:39.023Z,5.07
2022-08-05T04:35:06.883Z,3.30
2022-08-05T04:38:02.244Z,3.20
2022-08-05T04:40:35.370Z,3.65
2022-08-05T04:43:02.159Z,5.75
2022-08-05T04:45:48.336Z,5.80
2022-08-05T04:48:27.338Z,12.20
2022-08-05T04:51:02.975Z,8.27
2022-08-05T04:53:38.866Z,9.15
2022-08-05T04:56:33.408Z,10.10
2022-08-05T04:59:00.273Z,7.07
2022-08-05T05:02:35.604Z,6.15
2022-08-05T05:04:33.554Z,7.90
2022-08-05T05:07:00.213Z,8.57
2022-08-05T05:09:28.920Z,8.90
2022-08-05T05:11:59.048Z,10.38
2022-08-05T05:14:31.926Z,9.43
2022-08-05T05:17:03.529Z,10.73
2022-08-05T05:19:37.264Z,11.20
2022-08-05T05:23:07.999Z,10.50
2022-08-05T05:26:32.932Z,8.32
2022-08-05T05:28:59.892Z,12.05
2022-08-05T05:35:24.246Z,6.93
2022-08-05T05:38:02.968Z,10.75
2022-08-05T05:40:32.047Z,11.60
2022-08-05T05:42:59.881Z,10.73
2022-08-05T05:45:29.349Z,9.85
2022-08-05T05:48:05.308Z,8.30
2022-08-05T05:50:41.299Z,8.52
2022-08-05T05:53:21.124Z,9.75
2022-08-05T05:55:51.839Z,9.48
2022-08-05T05:58:54.222Z,10.70
2022-08-05T06:01:23.446Z,13.02
2022-08-05T06:04:01.199Z,8.85
2022-08-05T06:06:31.019Z,6.78
2022-08-05T06:09:00.745Z,10.20
2022-08-05T06:11:29.000Z,9.25
2022-08-05T06:13:57.061Z,8.18
2022-08-05T06:16:28.927Z,10.70
2022-08-05T06:19:00.286Z,10.98
2022-08-05T06:21:41.751Z,11.27
2022-08-05T06:24:16.493Z,5.80
2022-08-05T06:26:51.370Z,7.18
2022-08-05T06:29:24.979Z,7.93
2022-08-05T06:32:21.032Z,10.68
2022-08-05T06:34:53.550Z,10.30
2022-08-05T06:37:56.162Z,9.90
2022-08-05T06:40:10.484Z,6.70
2022-08-05T06:42:39.899Z,9.77
2022-08-05T06:45:09.047Z,10.00
2022-08-05T06:48:36.010Z,6.90
2022-08-05T06:50:23.620Z,8.45
2022-08-05T06:53:03.560Z,8.57
2022-08-05T06:55:38.386Z,8.75
2022-08-05T06:58:20.008Z,6.97
2022-08-05T07:00:58.711Z,7.15
2022-08-05T07:03:32.319Z,7.20
2022-08-05T07:06:15.031Z,9.32
2022-08-05T07:08:47.874Z,6.65
2022-08-05T07:11:22.387Z,7.38
2022-08-05T07:14:20.689Z,12.32
2022-08-05T07:17:59.045Z,9.27
2022-08-05T07:22:37.487Z,11.35
2022-08-05T07:25:24.050Z,11.98
2022-08-05T07:28:11.679Z,12.88
2022-08-05T07:30:50.396Z,9.15
2022-08-05T07:33:36.697Z,11.20
2022-08-05T07:36:20.856Z,9.57
2022-08-05T07:38:48.906Z,13.73
2022-08-05T07:42:09.649Z,11.63
2022-08-05T07:44:33.715Z,10.57
2022-08-05T07:47:01.385Z,12.90
2022-08-05T07:49:34.437Z,8.45
2022-08-05T07:52:10.175Z,11.30
2022-08-05T07:54:38.683Z,7.35
2022-08-05T07:57:58.945Z,8.00
2022-08-05T08:00:29.403Z,6.43
2022-08-05T08:03:13.662Z,5.03
2022-08-05T08:05:49.334Z,6.20
2022-08-05T08:08:19.999Z,5.63
2022-08-05T08:10:49.018Z,3.70
2022-08-05T08:13:22.115Z,5.40
2022-08-05T08:16:35.317Z,3.88
2022-08-05T08:18:42.357Z,4.18
2022-08-05T08:21:47.956Z,4.20
2022-08-05T08:24:14.808Z,2.88
2022-08-05T08:26:41.439Z,4.38
2022-08-05T08:29:29.367Z,3.58
2022-08-05T08:31:55.503Z,5.82
2022-08-05T08:34:30.736Z,3.60
2022-08-05T08:37:56.440Z,8.63
2022-08-05T08:45:16.431Z,9.73
2022-08-05T08:48:06.055Z,2.90
2022-08-05T08:52:03.268Z,4.63
2022-08-05T08:55:14.433Z,4.93
2022-08-05T08:57:58.385Z,5.35
2022-08-05T09:00:51.504Z,3.05
2022-08-05T09:07:57.052Z,5.45
2022-08-05T09:10:27.870Z,5.15
2022-08-05T09:12:57.026Z,2.88
2022-08-05T09:15:31.139Z,4.63
2022-08-05T09:17:57.793Z,3.05
2022-08-05T09:20:37.403Z,1.77
2022-08-05T09:23:18.794Z,3.03
2022-08-05T09:26:02.078Z,2.13
2022-08-05T09:29:47.810Z,6.90
2022-08-05T09:33:22.086Z,1.70
2022-08-05T09:36:55.186Z,2.25
2022-08-05T09:39:39.495Z,2.40
2022-08-05T09:42:17.313Z,3.65
2022-08-05T09:44:56.135Z,1.52
2022-08-05T09:47:25.538Z,1.75
2022-08-05T09:50:01.567Z,1.50
2022-08-05T09:52:44.872Z,3.78
2022-08-05T09:55:57.168Z,2.17
2022-08-05T09:58:15.801Z,2.05
2022-08-05T10:03:18.956Z,1.48
2022-08-05T10:05:47.090Z,1.92
2022-08-05T10:08:37.415Z,2.38
2022-08-05T10:11:15.759Z,2.50
2022-08-05T10:13:47.175Z,1.27
2022-08-05T10:16:42.047Z,2.57
2022-08-05T10:19:23.715Z,1.42
2022-08-05T10:21:58.965Z,2.00
2022-08-05T10:24:28.616Z,1.50
2022-08-05T10:26:56.718Z,2.22
2022-08-05T10:30:41.444Z,2.85
2022-08-05T10:32:52.605Z,1.92
2022-08-05T10:35:04.324Z,1.77
2022-08-05T10:37:40.061Z,6.05
2022-08-05T10:40:20.000Z,2.95
2022-08-05T10:43:01.209Z,3.03
2022-08-05T10:45:42.168Z,2.40
2022-08-05T10:48:33.347Z,1.60
2022-08-05T10:51:21.991Z,1.45
2022-08-05T10:54:23.079Z,2.22
2022-08-05T10:56:55.978Z,2.00
2022-08-05T11:00:03.275Z,3.25
2022-08-05T11:02:38.157Z,2.28
2022-08-05T11:05:09.498Z,2.63
2022-08-05T11:08:02.669Z,2.63
2022-08-05T11:10:33.607Z,4.57
2022-08-05T11:13:01.452Z,4.38
2022-08-05T11:16:00.642Z,1.80
2022-08-05T11:18:32.433Z,2.22
2022-08-05T11:21:02.909Z,2.20
2022-08-05T11:24:30.046Z,2.00
2022-08-05T11:27:29.025Z,2.45
2022-08-05T11:30:15.602Z,2.85
2022-08-05T11:32:42.106Z,3.90
2022-08-05T11:36:07.486Z,5.17
2022-08-05T11:38:45.989Z,3.10
2022-08-05T11:41:54.842Z,5.30
2022-08-05T11:44:11.488Z,1.85
2022-08-05T11:47:09.656Z,3.03
2022-08-05T11:49:38.910Z,3.03
2022-08-05T11:52:11.962Z,3.88
2022-08-05T11:54:40.559Z,2.58
2022-08-05T11:57:24.535Z,2.13
2022-08-05T11:59:52.292Z,3.05
2022-08-05T12:02:31.296Z,3.53
2022-08-05T12:05:06.900Z,2.38
2022-08-05T12:08:03.732Z,2.78
2022-08-05T12:10:43.244Z,5.60
2022-08-05T12:13:27.855Z,4.47
2022-08-05T12:16:19.075Z,4.95
2022-08-05T12:18:53.024Z,3.58
2022-08-05T12:21:23.943Z,4.28
2022-08-05T12:24:03.329Z,4.32
2022-08-05T12:26:54.369Z,5.07
2022-08-05T12:29:26.034Z,3.38
2022-08-05T12:32:01.826Z,3.97
2022-08-05T12:34:32.551Z,3.83
2022-08-05T12:37:07.625Z,7.82
2022-08-05T12:39:38.672Z,4.47
2022-08-05T12:42:18.137Z,4.90
2022-08-05T12:44:47.561Z,4.55
2022-08-05T12:47:30.730Z,3.90
2022-08-05T12:52:39.150Z,3.22
2022-08-05T12:55:25.643Z,3.88
2022-08-05T12:58:48.634Z,2.83
2022-08-05T13:02:03.098Z,3.17
2022-08-05T13:03:41.475Z,3.13
2022-08-05T13:06:15.939Z,3.50
2022-08-05T13:08:50.836Z,3.03
2022-08-05T13:11:25.351Z,3.10
2022-08-05T13:14:36.072Z,3.75
2022-08-05T13:17:10.847Z,3.50
2022-08-05T13:19:40.402Z,3.97
2022-08-05T13:25:52.033Z,3.95
2022-08-05T13:28:29.737Z,3.75
2022-08-05T13:30:59.548Z,6.25
2022-08-05T13:34:23.364Z,6.43
2022-08-05T13:36:53.997Z,4.68
2022-08-05T13:40:14.394Z,7.57
2022-08-05T13:42:14.338Z,7.40
2022-08-05T13:44:45.557Z,4.82
2022-08-05T13:47:35.783Z,5.88
2022-08-05T13:50:04.402Z,5.95
2022-08-05T13:52:39.779Z,7.22
2022-08-05T13:55:09.838Z,11.68
2022-08-05T13:57:51.530Z,10.05
2022-08-05T14:00:30.792Z,9.70
2022-08-05T14:03:01.071Z,9.48
2022-08-05T14:06:04.619Z,12.82
2022-08-05T14:08:20.968Z,9.55
2022-08-05T14:11:03.078Z,10.88
2022-08-05T14:13:48.292Z,8.35
2022-08-05T14:16:16.942Z,8.95
2022-08-05T14:18:45.768Z,8.45
2022-08-05T14:22:08.321Z,10.32
2022-08-05T14:24:04.274Z,12.60
2022-08-05T14:26:36.812Z,9.98
2022-08-05T14:29:05.636Z,10.23
2022-08-05T14:32:03.778Z,10.18
2022-08-05T14:34:35.862Z,10.98
2022-08-05T14:37:15.645Z,10.65
2022-08-05T14:39:50.294Z,9.77
2022-08-05T14:42:23.604Z,9.90
2022-08-05T14:44:51.946Z,9.65
2022-08-05T14:47:58.417Z,9.18
2022-08-05T14:50:14.197Z,12.20
2022-08-05T14:52:53.584Z,13.82
2022-08-05T14:55:24.576Z,11.52
2022-08-05T14:57:54.432Z,10.93
2022-08-05T15:00:27.884Z,10.98
2022-08-05T15:02:55.193Z,12.15
2022-08-05T15:05:21.900Z,9.45
2022-08-05T15:08:06.502Z,10.57
2022-08-05T15:10:41.472Z,8.57
2022-08-05T15:13:10.048Z,6.82
2022-08-05T15:15:54.268Z,7.03
2022-08-05T15:18:22.597Z,7.05
2022-08-05T15:20:49.707Z,7.70
2022-08-05T15:23:18.086Z,5.38
2022-08-05T15:25:52.072Z,8.15
2022-08-05T15:28:19.747Z,6.18
2022-08-05T15:30:53.683Z,8.63
2022-08-05T15:33:56.863Z,5.38
2022-08-05T15:36:16.851Z,8.13
2022-08-05T15:38:44.843Z,5.57
2022-08-05T15:41:22.822Z,5.13
2022-08-05T15:44:01.135Z,5.25
2022-08-05T15:46:30.808Z,3.22
2022-08-05T15:49:00.841Z,3.30
2022-08-05T15:52:03.895Z,2.55
2022-08-05T15:54:34.871Z,3.17
2022-08-05T15:57:01.918Z,5.38
2022-08-05T15:59:28.454Z,3.45
2022-08-05T16:01:55.802Z,2.22
2022-08-05T16:04:26.085Z,3.25
2022-08-05T16:06:54.288Z,3.53
2022-08-05T16:09:23.207Z,2.83
2022-08-05T16:11:53.206Z,1.95
2022-08-05T16:14:20.804Z,2.80
2022-08-05T16:16:49.322Z,1.33
2022-08-05T16:19:25.391Z,1.98
2022-08-05T16:22:03.613Z,1.55
2022-08-05T16:24:39.962Z,1.13
2022-08-05T16:27:09.313Z,0.73
2022-08-05T16:29:37.268Z,2.47
2022-08-05T16:32:09.679Z,3.78
2022-08-05T16:34:39.327Z,3.00
2022-08-05T16:38:02.929Z,1.03
2022-08-05T16:40:05.280Z,0.95
2022-08-05T16:42:34.703Z,0.90
2022-08-05T16:45:01.943Z,1.10
2022-08-05T16:47:36.133Z,2.03
2022-08-05T16:50:09.985Z,0.98
2022-08-05T16:52:37.291Z,1.73
2022-08-05T16:55:04.807Z,0.47
2022-08-05T16:57:50.470Z,0.70
2022-08-05T17:00:26.228Z,0.65
2022-08-05T17:03:02.928Z,0.68
2022-08-05T17:05:31.142Z,0.38
2022-08-05T17:07:57.986Z,0.82
2022-08-05T17:10:26.409Z,0.43
2022-08-05T17:12:57.454Z,1.25
2022-08-05T17:15:24.369Z,0.40
2022-08-05T17:17:56.179Z,0.20
2022-08-05T17:20:25.048Z,3.80
2022-08-05T17:22:55.419Z,2.50
2022-08-05T17:25:40.214Z,3.35
2022-08-05T17:28:09.137Z,0.95
2022-08-05T17:30:42.479Z,0.50
2022-08-05T17:33:17.474Z,0.60
2022-08-05T17:36:07.374Z,0.47
2022-08-05T17:38:33.260Z,2.28
2022-08-05T17:40:59.944Z,0.68
2022-08-05T17:43:50.370Z,3.00
2022-08-05T17:46:13.005Z,0.30
2022-08-05T17:48:40.188Z,1.00
2022-08-05T17:51:09.775Z,0.30
2022-08-05T17:53:36.411Z,0.47
2022-08-05T17:56:04.624Z,1.15
2022-08-05T17:58:32.630Z,0.50
2022-08-05T18:00:59.712Z,1.45
2022-08-05T18:03:59.331Z,0.68
2022-08-05T18:06:15.221Z,1.65
2022-08-05T18:08:45.778Z,0.65
2022-08-05T18:11:24.199Z,0.98
2022-08-05T18:14:04.226Z,1.63
2022-08-05T18:18:00.313Z,0.85
2022-08-05T18:20:15.185Z,0.50
2022-08-05T18:22:54.246Z,1.98
2022-08-05T18:25:22.149Z,2.97
2022-08-05T18:27:52.312Z,1.25
2022-08-05T18:30:19.845Z,0.70
2022-08-05T18:32:53.169Z,1.77
2022-08-05T18:35:20.474Z,6.55
2022-08-05T18:38:09.463Z,5.00
2022-08-05T18:41:56.227Z,1.00
2022-08-05T18:43:23.100Z,1.15
2022-08-05T18:45:56.206Z,7.72
2022-08-05T18:52:04.149Z,2.03
2022-08-05T18:54:05.598Z,1.30
2022-08-05T18:56:33.213Z,2.42
2022-08-05T18:59:41.978Z,1.77
2022-08-05T19:01:58.537Z,2.72
2022-08-05T19:04:25.753Z,2.70
2022-08-05T19:06:53.742Z,2.55
2022-08-05T19:09:21.326Z,1.30
2022-08-05T19:12:01.286Z,2.92
2022-08-05T19:14:59.328Z,1.63
2022-08-05T19:17:16.772Z,3.35
2022-08-05T19:19:46.907Z,2.40
2022-08-05T19:22:17.532Z,1.80
2022-08-05T19:24:54.185Z,2.22
2022-08-05T19:27:43.085Z,1.77
2022-08-05T19:30:10.340Z,3.85
2022-08-05T19:32:37.534Z,9.35
2022-08-05T19:35:06.419Z,1.58
2022-08-05T19:37:47.332Z,0.80
2022-08-05T19:40:24.349Z,1.77
2022-08-05T19:43:04.457Z,1.48
2022-08-05T19:45:36.420Z,1.08
2022-08-05T19:48:03.734Z,1.35
2022-08-05T19:50:32.173Z,3.28
2022-08-05T19:53:09.651Z,4.60
2022-08-05T19:56:13.619Z,1.75
2022-08-05T19:58:29.088Z,2.15
2022-08-05T20:00:56.318Z,1.17
2022-08-05T20:03:24.470Z,2.30
2022-08-05T20:05:56.799Z,3.35
2022-08-05T20:08:24.811Z,3.05
2022-08-05T20:10:51.831Z,1.25
2022-08-05T20:13:54.759Z,3.25
2022-08-05T20:16:09.873Z,1.30
2022-08-05T20:18:37.106Z,2.53
2022-08-05T20:21:06.670Z,4.68
2022-08-05T20:23:39.551Z,1.65
2022-08-05T20:26:17.426Z,0.95
2022-08-05T20:28:50.118Z,1.67
2022-08-05T20:31:52.302Z,2.38
2022-08-05T20:34:20.324Z,1.73
2022-08-05T20:36:46.888Z,2.63
2022-08-05T20:39:39.277Z,1.45
2022-08-05T20:42:06.828Z,1.08
2022-08-05T20:44:38.246Z,1.33
2022-08-05T20:47:06.623Z,3.65
2022-08-05T20:49:39.372Z,3.35
2022-08-05T20:52:07.248Z,1.80
2022-08-05T20:54:43.329Z,2.85
2022-08-05T20:57:42.734Z,1.88
2022-08-05T21:00:41.546Z,2.17
2022-08-05T21:03:01.175Z,1.75
2022-08-05T21:05:38.361Z,5.32
2022-08-05T21:08:14.651Z,3.08
2022-08-05T21:10:49.000Z,2.80
2022-08-05T21:13:26.090Z,1.48
2022-08-05T21:16:13.641Z,2.83
2022-08-05T21:18:44.988Z,2.80
2022-08-05T21:21:11.999Z,3.30
2022-08-05T21:23:38.981Z,2.13
2022-08-05T21:26:08.088Z,3.75
2022-08-05T21:28:40.048Z,3.33
2022-08-05T21:31:14.348Z,1.95
2022-08-05T21:33:43.142Z,1.08
2022-08-05T21:36:14.430Z,1.48
2022-08-05T21:38:54.628Z,1.00
2022-08-05T21:41:21.423Z,5.40
2022-08-05T21:44:01.626Z,2.45
2022-08-05T21:46:31.037Z,3.75
2022-08-05T21:48:59.872Z,3.78
2022-08-05T21:52:22.155Z,1.25
2022-08-05T21:54:13.099Z,3.88
2022-08-05T21:56:44.477Z,8.57
2022-08-05T21:59:22.455Z,1.02
